sensor_id;sensor_type;location;lat;lon;timestamp;P1;durP1;ratioP1;P2;durP2;ratioP2
68229;SDS011;55048;52.220;5.160;2023-08-07T00:01:42;11.00;;;1.40;;
68229;SDS011;55048;52.220;5.160;2023-08-07T00:04:08;14.20;;;2.00;;
68229;SDS011;55048;52.220;5.160;2023-08-07T00:06:33;18.42;;;2.30;;
68229;SDS011;55048;52.220;5.160;2023-08-07T00:08:58;11.73;;;1.58;;
68229;SDS011;55048;52.220;5.160;2023-08-07T00:11:24;17.58;;;1.88;;
68229;SDS011;55048;52.220;5.160;2023-08-07T00:13:49;10.60;;;1.70;;
68229;SDS011;55048;52.220;5.160;2023-08-07T00:16:15;10.05;;;1.75;;
68229;SDS011;55048;52.220;5.160;2023-08-07T00:18:40;21.23;;;2.97;;
68229;SDS011;55048;52.220;5.160;2023-08-07T00:21:05;15.43;;;1.88;;
68229;SDS011;55048;52.220;5.160;2023-08-07T00:23:31;11.95;;;1.83;;
68229;SDS011;55048;52.220;5.160;2023-08-07T00:25:56;7.18;;;1.33;;
68229;SDS011;55048;52.220;5.160;2023-08-07T00:28:21;8.93;;;1.35;;
68229;SDS011;55048;52.220;5.160;2023-08-07T00:30:47;9.25;;;1.02;;
68229;SDS011;55048;52.220;5.160;2023-08-07T00:33:12;8.52;;;1.20;;
68229;SDS011;55048;52.220;5.160;2023-08-07T00:35:38;13.02;;;1.83;;
68229;SDS011;55048;52.220;5.160;2023-08-07T00:38:03;9.50;;;1.70;;
68229;SDS011;55048;52.220;5.160;2023-08-07T00:40:35;11.10;;;1.33;;
68229;SDS011;55048;52.220;5.160;2023-08-07T00:43:01;12.20;;;1.15;;
68229;SDS011;55048;52.220;5.160;2023-08-07T00:45:27;14.50;;;1.95;;
68229;SDS011;55048;52.220;5.160;2023-08-07T00:47:52;17.92;;;1.95;;
68229;SDS011;55048;52.220;5.160;2023-08-07T00:50:18;10.05;;;1.50;;
68229;SDS011;55048;52.220;5.160;2023-08-07T00:52:43;11.45;;;1.77;;
68229;SDS011;55048;52.220;5.160;2023-08-07T00:55:09;16.73;;;2.17;;
68229;SDS011;55048;52.220;5.160;2023-08-07T00:57:35;11.85;;;1.95;;
68229;SDS011;55048;52.220;5.160;2023-08-07T01:00:02;13.55;;;1.70;;
68229;SDS011;55048;52.220;5.160;2023-08-07T01:02:28;11.13;;;1.38;;
68229;SDS011;55048;52.220;5.160;2023-08-07T01:04:54;9.82;;;0.90;;
68229;SDS011;55048;52.220;5.160;2023-08-07T01:07:20;10.32;;;1.15;;
68229;SDS011;55048;52.220;5.160;2023-08-07T01:09:46;12.10;;;1.15;;
68229;SDS011;55048;52.220;5.160;2023-08-07T01:14:55;9.00;;;1.42;;
68229;SDS011;55048;52.220;5.160;2023-08-07T01:17:39;15.05;;;1.25;;
68229;SDS011;55048;52.220;5.160;2023-08-07T01:20:05;13.23;;;1.35;;
68229;SDS011;55048;52.220;5.160;2023-08-07T01:22:32;10.95;;;1.20;;
68229;SDS011;55048;52.220;5.160;2023-08-07T01:24:57;7.43;;;1.05;;
68229;SDS011;55048;52.220;5.160;2023-08-07T01:35:43;10.10;;;1.20;;
68229;SDS011;55048;52.220;5.160;2023-08-07T01:38:11;14.38;;;1.48;;
68229;SDS011;55048;52.220;5.160;2023-08-07T01:40:39;9.77;;;1.15;;
68229;SDS011;55048;52.220;5.160;2023-08-07T01:43:07;15.35;;;1.10;;
68229;SDS011;55048;52.220;5.160;2023-08-07T01:45:33;11.20;;;1.30;;
68229;SDS011;55048;52.220;5.160;2023-08-07T01:47:59;9.25;;;0.93;;
68229;SDS011;55048;52.220;5.160;2023-08-07T01:50:25;14.40;;;1.27;;
68229;SDS011;55048;52.220;5.160;2023-08-07T01:52:51;11.10;;;1.98;;
68229;SDS011;55048;52.220;5.160;2023-08-07T01:55:17;15.07;;;1.40;;
68229;SDS011;55048;52.220;5.160;2023-08-07T01:57:49;18.13;;;1.70;;
68229;SDS011;55048;52.220;5.160;2023-08-07T02:00:16;7.85;;;1.08;;
68229;SDS011;55048;52.220;5.160;2023-08-07T02:02:41;19.75;;;1.27;;
68229;SDS011;55048;52.220;5.160;2023-08-07T02:05:07;10.73;;;0.93;;
68229;SDS011;55048;52.220;5.160;2023-08-07T02:07:32;25.63;;;1.65;;
68229;SDS011;55048;52.220;5.160;2023-08-07T02:10:01;13.90;;;1.37;;
68229;SDS011;55048;52.220;5.160;2023-08-07T02:12:27;18.88;;;1.38;;
68229;SDS011;55048;52.220;5.160;2023-08-07T02:14:54;13.65;;;1.27;;
68229;SDS011;55048;52.220;5.160;2023-08-07T02:17:20;13.80;;;1.35;;
68229;SDS011;55048;52.220;5.160;2023-08-07T02:19:47;8.93;;;1.40;;
68229;SDS011;55048;52.220;5.160;2023-08-07T02:22:13;8.00;;;1.20;;
68229;SDS011;55048;52.220;5.160;2023-08-07T02:24:38;9.20;;;1.90;;
68229;SDS011;55048;52.220;5.160;2023-08-07T02:27:05;16.75;;;1.60;;
68229;SDS011;55048;52.220;5.160;2023-08-07T02:29:31;9.20;;;1.13;;
68229;SDS011;55048;52.220;5.160;2023-08-07T02:31:59;17.30;;;1.75;;
68229;SDS011;55048;52.220;5.160;2023-08-07T02:34:25;9.85;;;1.00;;
68229;SDS011;55048;52.220;5.160;2023-08-07T02:36:50;15.13;;;1.40;;
68229;SDS011;55048;52.220;5.160;2023-08-07T02:39:16;13.38;;;1.58;;
68229;SDS011;55048;52.220;5.160;2023-08-07T02:41:42;14.48;;;1.98;;
68229;SDS011;55048;52.220;5.160;2023-08-07T02:44:07;11.10;;;1.58;;
68229;SDS011;55048;52.220;5.160;2023-08-07T02:46:32;9.40;;;1.27;;
68229;SDS011;55048;52.220;5.160;2023-08-07T02:49:01;15.70;;;2.80;;
68229;SDS011;55048;52.220;5.160;2023-08-07T02:51:26;13.38;;;1.85;;
68229;SDS011;55048;52.220;5.160;2023-08-07T02:53:52;13.15;;;1.60;;
68229;SDS011;55048;52.220;5.160;2023-08-07T02:56:17;11.25;;;0.98;;
68229;SDS011;55048;52.220;5.160;2023-08-07T02:58:43;5.75;;;1.35;;
68229;SDS011;55048;52.220;5.160;2023-08-07T03:01:08;10.75;;;1.85;;
68229;SDS011;55048;52.220;5.160;2023-08-07T03:03:34;6.97;;;1.38;;
68229;SDS011;55048;52.220;5.160;2023-08-07T03:06:00;11.63;;;2.20;;
68229;SDS011;55048;52.220;5.160;2023-08-07T03:08:26;10.60;;;1.40;;
68229;SDS011;55048;52.220;5.160;2023-08-07T03:10:56;11.57;;;2.55;;
68229;SDS011;55048;52.220;5.160;2023-08-07T03:13:23;7.88;;;1.65;;
68229;SDS011;55048;52.220;5.160;2023-08-07T03:15:50;10.60;;;1.50;;
68229;SDS011;55048;52.220;5.160;2023-08-07T03:18:16;8.60;;;2.42;;
68229;SDS011;55048;52.220;5.160;2023-08-07T03:20:42;14.18;;;3.50;;
68229;SDS011;55048;52.220;5.160;2023-08-07T03:23:09;5.75;;;1.02;;
68229;SDS011;55048;52.220;5.160;2023-08-07T03:25:35;12.40;;;2.20;;
68229;SDS011;55048;52.220;5.160;2023-08-07T03:28:01;8.98;;;1.55;;
68229;SDS011;55048;52.220;5.160;2023-08-07T03:30:27;8.70;;;1.75;;
68229;SDS011;55048;52.220;5.160;2023-08-07T03:32:52;5.82;;;1.17;;
68229;SDS011;55048;52.220;5.160;2023-08-07T03:35:18;8.35;;;1.40;;
68229;SDS011;55048;52.220;5.160;2023-08-07T03:37:44;8.93;;;1.20;;
68229;SDS011;55048;52.220;5.160;2023-08-07T03:40:09;8.07;;;1.23;;
68229;SDS011;55048;52.220;5.160;2023-08-07T03:42:36;5.80;;;1.52;;
68229;SDS011;55048;52.220;5.160;2023-08-07T03:45:02;3.28;;;0.82;;
68229;SDS011;55048;52.220;5.160;2023-08-07T03:47:29;8.60;;;1.27;;
68229;SDS011;55048;52.220;5.160;2023-08-07T03:49:55;11.82;;;1.25;;
68229;SDS011;55048;52.220;5.160;2023-08-07T03:52:21;10.38;;;1.38;;
68229;SDS011;55048;52.220;5.160;2023-08-07T03:54:46;5.72;;;1.08;;
68229;SDS011;55048;52.220;5.160;2023-08-07T03:57:12;12.75;;;1.38;;
68229;SDS011;55048;52.220;5.160;2023-08-07T03:59:37;17.90;;;1.80;;
68229;SDS011;55048;52.220;5.160;2023-08-07T04:02:03;9.52;;;1.20;;
68229;SDS011;55048;52.220;5.160;2023-08-07T04:04:29;9.23;;;1.30;;
68229;SDS011;55048;52.220;5.160;2023-08-07T04:06:54;6.32;;;1.67;;
68229;SDS011;55048;52.220;5.160;2023-08-07T04:09:20;10.95;;;1.30;;
68229;SDS011;55048;52.220;5.160;2023-08-07T04:11:45;9.55;;;1.23;;
68229;SDS011;55048;52.220;5.160;2023-08-07T04:14:11;12.63;;;1.15;;
68229;SDS011;55048;52.220;5.160;2023-08-07T04:16:36;10.63;;;1.30;;
68229;SDS011;55048;52.220;5.160;2023-08-07T04:19:02;10.15;;;1.20;;
68229;SDS011;55048;52.220;5.160;2023-08-07T04:21:29;7.85;;;0.90;;
68229;SDS011;55048;52.220;5.160;2023-08-07T04:23:55;16.83;;;1.00;;
68229;SDS011;55048;52.220;5.160;2023-08-07T04:26:20;9.75;;;0.93;;
68229;SDS011;55048;52.220;5.160;2023-08-07T04:28:46;11.43;;;1.40;;
68229;SDS011;55048;52.220;5.160;2023-08-07T04:31:13;10.27;;;1.17;;
68229;SDS011;55048;52.220;5.160;2023-08-07T04:33:38;16.80;;;1.50;;
68229;SDS011;55048;52.220;5.160;2023-08-07T04:36:04;10.85;;;1.27;;
68229;SDS011;55048;52.220;5.160;2023-08-07T04:38:30;11.45;;;1.40;;
68229;SDS011;55048;52.220;5.160;2023-08-07T04:40:56;6.57;;;1.02;;
68229;SDS011;55048;52.220;5.160;2023-08-07T04:43:21;17.92;;;1.80;;
68229;SDS011;55048;52.220;5.160;2023-08-07T04:45:46;12.85;;;1.70;;
68229;SDS011;55048;52.220;5.160;2023-08-07T04:48:12;7.60;;;1.75;;
68229;SDS011;55048;52.220;5.160;2023-08-07T04:50:38;11.45;;;1.15;;
68229;SDS011;55048;52.220;5.160;2023-08-07T04:53:04;11.85;;;1.30;;
68229;SDS011;55048;52.220;5.160;2023-08-07T04:55:30;9.73;;;1.30;;
68229;SDS011;55048;52.220;5.160;2023-08-07T04:57:56;7.57;;;1.17;;
68229;SDS011;55048;52.220;5.160;2023-08-07T05:00:22;8.27;;;1.38;;
68229;SDS011;55048;52.220;5.160;2023-08-07T05:02:48;12.50;;;1.15;;
68229;SDS011;55048;52.220;5.160;2023-08-07T05:05:14;16.23;;;1.50;;
68229;SDS011;55048;52.220;5.160;2023-08-07T05:07:40;10.60;;;1.40;;
68229;SDS011;55048;52.220;5.160;2023-08-07T05:10:07;16.08;;;1.70;;
68229;SDS011;55048;52.220;5.160;2023-08-07T05:12:34;10.10;;;1.33;;
68229;SDS011;55048;52.220;5.160;2023-08-07T05:14:59;7.90;;;1.20;;
68229;SDS011;55048;52.220;5.160;2023-08-07T05:17:25;6.07;;;1.23;;
68229;SDS011;55048;52.220;5.160;2023-08-07T05:19:50;9.98;;;1.23;;
68229;SDS011;55048;52.220;5.160;2023-08-07T05:22:16;13.57;;;1.20;;
68229;SDS011;55048;52.220;5.160;2023-08-07T05:24:41;5.97;;;1.23;;
68229;SDS011;55048;52.220;5.160;2023-08-07T05:27:08;9.80;;;1.40;;
68229;SDS011;55048;52.220;5.160;2023-08-07T05:29:34;6.50;;;0.80;;
68229;SDS011;55048;52.220;5.160;2023-08-07T05:32:08;7.93;;;0.70;;
68229;SDS011;55048;52.220;5.160;2023-08-07T05:34:33;13.57;;;1.40;;
68229;SDS011;55048;52.220;5.160;2023-08-07T05:36:59;7.45;;;0.98;;
68229;SDS011;55048;52.220;5.160;2023-08-07T05:39:24;7.85;;;1.38;;
68229;SDS011;55048;52.220;5.160;2023-08-07T05:41:50;10.32;;;1.08;;
68229;SDS011;55048;52.220;5.160;2023-08-07T05:44:16;10.80;;;1.10;;
68229;SDS011;55048;52.220;5.160;2023-08-07T05:46:41;13.80;;;1.40;;
68229;SDS011;55048;52.220;5.160;2023-08-07T05:49:06;11.50;;;1.60;;
68229;SDS011;55048;52.220;5.160;2023-08-07T05:51:32;11.75;;;1.50;;
68229;SDS011;55048;52.220;5.160;2023-08-07T05:53:57;11.45;;;1.63;;
68229;SDS011;55048;52.220;5.160;2023-08-07T05:56:23;9.93;;;1.50;;
68229;SDS011;55048;52.220;5.160;2023-08-07T05:58:48;17.38;;;1.70;;
68229;SDS011;55048;52.220;5.160;2023-08-07T06:01:14;10.73;;;1.75;;
68229;SDS011;55048;52.220;5.160;2023-08-07T06:03:41;12.38;;;1.73;;
68229;SDS011;55048;52.220;5.160;2023-08-07T06:06:07;14.57;;;1.88;;
68229;SDS011;55048;52.220;5.160;2023-08-07T06:08:32;16.05;;;1.70;;
68229;SDS011;55048;52.220;5.160;2023-08-07T06:10:58;13.27;;;1.40;;
68229;SDS011;55048;52.220;5.160;2023-08-07T06:13:23;9.75;;;1.85;;
68229;SDS011;55048;52.220;5.160;2023-08-07T06:15:48;9.52;;;2.08;;
68229;SDS011;55048;52.220;5.160;2023-08-07T06:18:14;13.63;;;1.77;;
68229;SDS011;55048;52.220;5.160;2023-08-07T06:20:39;18.48;;;1.90;;
68229;SDS011;55048;52.220;5.160;2023-08-07T06:23:05;11.65;;;2.00;;
68229;SDS011;55048;52.220;5.160;2023-08-07T06:25:30;14.02;;;1.63;;
68229;SDS011;55048;52.220;5.160;2023-08-07T06:27:56;13.00;;;1.80;;
68229;SDS011;55048;52.220;5.160;2023-08-07T06:30:21;11.50;;;1.60;;
68229;SDS011;55048;52.220;5.160;2023-08-07T06:32:47;14.73;;;1.65;;
68229;SDS011;55048;52.220;5.160;2023-08-07T06:35:12;11.73;;;1.48;;
68229;SDS011;55048;52.220;5.160;2023-08-07T06:37:37;11.68;;;1.48;;
68229;SDS011;55048;52.220;5.160;2023-08-07T06:40:03;9.88;;;1.80;;
68229;SDS011;55048;52.220;5.160;2023-08-07T06:42:30;10.30;;;1.20;;
68229;SDS011;55048;52.220;5.160;2023-08-07T06:44:56;9.65;;;1.30;;
68229;SDS011;55048;52.220;5.160;2023-08-07T06:47:21;11.70;;;1.42;;
68229;SDS011;55048;52.220;5.160;2023-08-07T06:49:46;9.40;;;1.40;;
68229;SDS011;55048;52.220;5.160;2023-08-07T06:52:12;9.18;;;1.45;;
68229;SDS011;55048;52.220;5.160;2023-08-07T06:54:37;10.05;;;1.33;;
68229;SDS011;55048;52.220;5.160;2023-08-07T06:57:03;12.55;;;1.70;;
68229;SDS011;55048;52.220;5.160;2023-08-07T06:59:29;12.52;;;1.48;;
68229;SDS011;55048;52.220;5.160;2023-08-07T07:01:54;12.27;;;1.75;;
68229;SDS011;55048;52.220;5.160;2023-08-07T07:09:51;10.00;;;1.40;;
68229;SDS011;55048;52.220;5.160;2023-08-07T07:12:17;9.98;;;1.48;;
68229;SDS011;55048;52.220;5.160;2023-08-07T07:14:42;9.70;;;1.40;;
68229;SDS011;55048;52.220;5.160;2023-08-07T07:17:08;16.05;;;1.60;;
68229;SDS011;55048;52.220;5.160;2023-08-07T07:19:33;10.63;;;1.65;;
68229;SDS011;55048;52.220;5.160;2023-08-07T07:21:59;12.93;;;1.30;;
68229;SDS011;55048;52.220;5.160;2023-08-07T07:24:24;12.13;;;1.88;;
68229;SDS011;55048;52.220;5.160;2023-08-07T07:26:49;13.57;;;1.55;;
68229;SDS011;55048;52.220;5.160;2023-08-07T07:29:16;13.32;;;1.48;;
68229;SDS011;55048;52.220;5.160;2023-08-07T07:31:43;5.97;;;1.42;;
68229;SDS011;55048;52.220;5.160;2023-08-07T07:34:08;9.85;;;1.20;;
68229;SDS011;55048;52.220;5.160;2023-08-07T07:36:34;13.32;;;1.75;;
68229;SDS011;55048;52.220;5.160;2023-08-07T07:38:59;18.73;;;2.13;;
68229;SDS011;55048;52.220;5.160;2023-08-07T07:41:24;12.70;;;1.58;;
68229;SDS011;55048;52.220;5.160;2023-08-07T07:43:50;10.50;;;1.50;;
68229;SDS011;55048;52.220;5.160;2023-08-07T07:46:16;18.73;;;1.73;;
68229;SDS011;55048;52.220;5.160;2023-08-07T07:48:41;16.30;;;2.42;;
68229;SDS011;55048;52.220;5.160;2023-08-07T07:51:07;9.25;;;1.45;;
68229;SDS011;55048;52.220;5.160;2023-08-07T07:53:33;6.85;;;1.27;;
68229;SDS011;55048;52.220;5.160;2023-08-07T07:55:59;5.28;;;0.90;;
68229;SDS011;55048;52.220;5.160;2023-08-07T07:58:24;7.90;;;1.45;;
68229;SDS011;55048;52.220;5.160;2023-08-07T08:00:50;6.65;;;1.15;;
68229;SDS011;55048;52.220;5.160;2023-08-07T08:03:18;8.20;;;1.10;;
68229;SDS011;55048;52.220;5.160;2023-08-07T08:05:46;12.60;;;1.27;;
68229;SDS011;55048;52.220;5.160;2023-08-07T08:08:14;12.50;;;1.23;;
68229;SDS011;55048;52.220;5.160;2023-08-07T08:10:39;8.63;;;1.50;;
68229;SDS011;55048;52.220;5.160;2023-08-07T08:13:04;8.35;;;1.05;;
68229;SDS011;55048;52.220;5.160;2023-08-07T08:15:30;13.70;;;1.30;;
68229;SDS011;55048;52.220;5.160;2023-08-07T08:17:55;7.38;;;1.15;;
68229;SDS011;55048;52.220;5.160;2023-08-07T08:20:21;10.32;;;1.33;;
68229;SDS011;55048;52.220;5.160;2023-08-07T08:22:46;6.00;;;1.00;;
68229;SDS011;55048;52.220;5.160;2023-08-07T08:25:12;9.90;;;1.20;;
68229;SDS011;55048;52.220;5.160;2023-08-07T08:27:38;6.85;;;1.05;;
68229;SDS011;55048;52.220;5.160;2023-08-07T08:30:04;11.13;;;1.10;;
68229;SDS011;55048;52.220;5.160;2023-08-07T08:32:30;13.70;;;1.20;;
68229;SDS011;55048;52.220;5.160;2023-08-07T08:34:55;13.20;;;1.55;;
68229;SDS011;55048;52.220;5.160;2023-08-07T08:37:21;15.18;;;1.77;;
68229;SDS011;55048;52.220;5.160;2023-08-07T08:39:47;8.85;;;0.85;;
68229;SDS011;55048;52.220;5.160;2023-08-07T08:42:12;8.13;;;1.27;;
68229;SDS011;55048;52.220;5.160;2023-08-07T08:44:45;6.15;;;1.08;;
68229;SDS011;55048;52.220;5.160;2023-08-07T08:47:16;5.88;;;1.10;;
68229;SDS011;55048;52.220;5.160;2023-08-07T08:49:55;8.70;;;1.20;;
68229;SDS011;55048;52.220;5.160;2023-08-07T08:52:30;14.02;;;1.50;;
68229;SDS011;55048;52.220;5.160;2023-08-07T08:54:57;9.15;;;1.13;;
68229;SDS011;55048;52.220;5.160;2023-08-07T08:57:26;9.50;;;1.17;;
68229;SDS011;55048;52.220;5.160;2023-08-07T08:59:53;11.65;;;1.52;;
68229;SDS011;55048;52.220;5.160;2023-08-07T09:02:18;7.82;;;1.10;;
68229;SDS011;55048;52.220;5.160;2023-08-07T09:04:44;10.90;;;1.40;;
68229;SDS011;55048;52.220;5.160;2023-08-07T09:07:10;6.82;;;1.20;;
68229;SDS011;55048;52.220;5.160;2023-08-07T09:09:38;10.85;;;1.38;;
68229;SDS011;55048;52.220;5.160;2023-08-07T09:12:06;14.48;;;1.65;;
68229;SDS011;55048;52.220;5.160;2023-08-07T09:14:38;9.65;;;1.30;;
68229;SDS011;55048;52.220;5.160;2023-08-07T09:17:06;8.38;;;1.00;;
68229;SDS011;55048;52.220;5.160;2023-08-07T09:19:33;9.35;;;1.52;;
68229;SDS011;55048;52.220;5.160;2023-08-07T09:21:58;10.82;;;1.10;;
68229;SDS011;55048;52.220;5.160;2023-08-07T09:24:24;11.27;;;1.10;;
68229;SDS011;55048;52.220;5.160;2023-08-07T09:26:50;7.20;;;1.35;;
68229;SDS011;55048;52.220;5.160;2023-08-07T09:29:17;6.60;;;1.15;;
68229;SDS011;55048;52.220;5.160;2023-08-07T09:31:45;15.02;;;1.48;;
68229;SDS011;55048;52.220;5.160;2023-08-07T09:34:11;11.07;;;1.05;;
68229;SDS011;55048;52.220;5.160;2023-08-07T09:36:39;16.05;;;1.42;;
68229;SDS011;55048;52.220;5.160;2023-08-07T09:39:06;10.50;;;1.20;;
68229;SDS011;55048;52.220;5.160;2023-08-07T09:41:31;10.90;;;1.17;;
68229;SDS011;55048;52.220;5.160;2023-08-07T09:43:57;8.80;;;1.00;;
68229;SDS011;55048;52.220;5.160;2023-08-07T09:46:23;10.45;;;1.25;;
68229;SDS011;55048;52.220;5.160;2023-08-07T09:48:50;10.77;;;1.27;;
68229;SDS011;55048;52.220;5.160;2023-08-07T09:51:16;13.82;;;1.60;;
68229;SDS011;55048;52.220;5.160;2023-08-07T09:53:41;7.68;;;0.82;;
68229;SDS011;55048;52.220;5.160;2023-08-07T09:56:07;6.90;;;1.10;;
68229;SDS011;55048;52.220;5.160;2023-08-07T09:58:32;13.98;;;1.20;;
68229;SDS011;55048;52.220;5.160;2023-08-07T10:00:58;8.20;;;0.90;;
68229;SDS011;55048;52.220;5.160;2023-08-07T10:03:26;6.22;;;0.90;;
68229;SDS011;55048;52.220;5.160;2023-08-07T10:05:51;9.85;;;1.27;;
68229;SDS011;55048;52.220;5.160;2023-08-07T10:08:17;6.07;;;0.98;;
68229;SDS011;55048;52.220;5.160;2023-08-07T10:10:43;7.00;;;1.00;;
68229;SDS011;55048;52.220;5.160;2023-08-07T10:13:09;10.57;;;1.00;;
68229;SDS011;55048;52.220;5.160;2023-08-07T10:15:37;8.13;;;0.90;;
68229;SDS011;55048;52.220;5.160;2023-08-07T10:18:05;13.02;;;1.20;;
68229;SDS011;55048;52.220;5.160;2023-08-07T10:20:31;9.70;;;1.20;;
68229;SDS011;55048;52.220;5.160;2023-08-07T10:22:58;12.18;;;1.20;;
68229;SDS011;55048;52.220;5.160;2023-08-07T10:25:27;7.13;;;1.10;;
68229;SDS011;55048;52.220;5.160;2023-08-07T10:27:54;5.88;;;1.52;;
68229;SDS011;55048;52.220;5.160;2023-08-07T10:30:22;10.07;;;1.02;;
68229;SDS011;55048;52.220;5.160;2023-08-07T10:32:50;8.65;;;1.20;;
68229;SDS011;55048;52.220;5.160;2023-08-07T10:35:23;21.67;;;1.30;;
68229;SDS011;55048;52.220;5.160;2023-08-07T10:37:50;25.27;;;1.55;;
68229;SDS011;55048;52.220;5.160;2023-08-07T10:40:16;20.83;;;1.65;;
68229;SDS011;55048;52.220;5.160;2023-08-07T10:42:52;8.63;;;1.00;;
68229;SDS011;55048;52.220;5.160;2023-08-07T10:45:24;13.02;;;1.02;;
68229;SDS011;55048;52.220;5.160;2023-08-07T10:47:57;9.18;;;1.05;;
68229;SDS011;55048;52.220;5.160;2023-08-07T10:50:35;10.32;;;1.02;;
68229;SDS011;55048;52.220;5.160;2023-08-07T10:53:20;4.43;;;0.70;;
68229;SDS011;55048;52.220;5.160;2023-08-07T10:55:47;8.52;;;1.05;;
68229;SDS011;55048;52.220;5.160;2023-08-07T10:58:22;6.78;;;1.45;;
68229;SDS011;55048;52.220;5.160;2023-08-07T11:00:50;9.18;;;1.10;;
68229;SDS011;55048;52.220;5.160;2023-08-07T11:03:36;10.52;;;1.30;;
68229;SDS011;55048;52.220;5.160;2023-08-07T11:06:01;4.82;;;0.98;;
68229;SDS011;55048;52.220;5.160;2023-08-07T11:08:27;8.60;;;0.95;;
68229;SDS011;55048;52.220;5.160;2023-08-07T11:10:53;7.28;;;1.00;;
68229;SDS011;55048;52.220;5.160;2023-08-07T11:13:20;8.45;;;1.27;;
68229;SDS011;55048;52.220;5.160;2023-08-07T11:15:45;11.23;;;1.33;;
68229;SDS011;55048;52.220;5.160;2023-08-07T11:18:12;6.60;;;0.85;;
68229;SDS011;55048;52.220;5.160;2023-08-07T11:20:37;5.85;;;0.90;;
68229;SDS011;55048;52.220;5.160;2023-08-07T11:23:04;6.05;;;1.05;;
68229;SDS011;55048;52.220;5.160;2023-08-07T11:25:30;6.82;;;1.02;;
68229;SDS011;55048;52.220;5.160;2023-08-07T11:27:56;7.90;;;1.00;;
68229;SDS011;55048;52.220;5.160;2023-08-07T11:30:21;6.35;;;0.75;;
68229;SDS011;55048;52.220;5.160;2023-08-07T11:32:46;7.20;;;0.95;;
68229;SDS011;55048;52.220;5.160;2023-08-07T11:35:12;3.88;;;0.90;;
68229;SDS011;55048;52.220;5.160;2023-08-07T11:37:44;8.00;;;1.67;;
68229;SDS011;55048;52.220;5.160;2023-08-07T11:40:11;4.63;;;0.90;;
68229;SDS011;55048;52.220;5.160;2023-08-07T11:42:37;9.05;;;0.88;;
68229;SDS011;55048;52.220;5.160;2023-08-07T11:45:02;7.93;;;0.98;;
68229;SDS011;55048;52.220;5.160;2023-08-07T11:47:28;6.57;;;0.90;;
68229;SDS011;55048;52.220;5.160;2023-08-07T11:49:53;5.07;;;0.90;;
68229;SDS011;55048;52.220;5.160;2023-08-07T11:52:19;2.00;;;0.50;;
68229;SDS011;55048;52.220;5.160;2023-08-07T11:54:48;8.05;;;0.80;;
68229;SDS011;55048;52.220;5.160;2023-08-07T11:57:15;5.50;;;0.80;;
68229;SDS011;55048;52.220;5.160;2023-08-07T11:59:41;3.35;;;0.70;;
68229;SDS011;55048;52.220;5.160;2023-08-07T12:02:10;3.38;;;0.55;;
68229;SDS011;55048;52.220;5.160;2023-08-07T12:04:39;6.00;;;0.60;;
68229;SDS011;55048;52.220;5.160;2023-08-07T12:07:05;7.70;;;0.80;;
68229;SDS011;55048;52.220;5.160;2023-08-07T12:09:30;6.05;;;0.80;;
68229;SDS011;55048;52.220;5.160;2023-08-07T12:11:59;2.45;;;0.60;;
68229;SDS011;55048;52.220;5.160;2023-08-07T12:14:28;4.97;;;0.77;;
68229;SDS011;55048;52.220;5.160;2023-08-07T12:16:55;3.55;;;0.75;;
68229;SDS011;55048;52.220;5.160;2023-08-07T12:19:20;2.78;;;0.50;;
68229;SDS011;55048;52.220;5.160;2023-08-07T12:21:46;8.07;;;0.60;;
68229;SDS011;55048;52.220;5.160;2023-08-07T12:24:12;4.43;;;0.60;;
68229;SDS011;55048;52.220;5.160;2023-08-07T12:26:38;8.65;;;0.60;;
68229;SDS011;55048;52.220;5.160;2023-08-07T12:29:03;1.98;;;0.57;;
68229;SDS011;55048;52.220;5.160;2023-08-07T12:31:29;2.83;;;0.60;;
68229;SDS011;55048;52.220;5.160;2023-08-07T12:33:54;2.47;;;0.50;;
68229;SDS011;55048;52.220;5.160;2023-08-07T12:36:20;5.88;;;0.80;;
68229;SDS011;55048;52.220;5.160;2023-08-07T12:38:45;3.13;;;0.60;;
68229;SDS011;55048;52.220;5.160;2023-08-07T12:41:11;10.55;;;0.70;;
68229;SDS011;55048;52.220;5.160;2023-08-07T12:43:37;2.22;;;0.45;;
68229;SDS011;55048;52.220;5.160;2023-08-07T12:46:02;4.78;;;0.60;;
68229;SDS011;55048;52.220;5.160;2023-08-07T12:48:27;8.27;;;0.60;;
68229;SDS011;55048;52.220;5.160;2023-08-07T12:50:53;4.90;;;0.90;;
68229;SDS011;55048;52.220;5.160;2023-08-07T12:53:19;6.70;;;0.60;;
68229;SDS011;55048;52.220;5.160;2023-08-07T12:55:44;4.30;;;0.50;;
68229;SDS011;55048;52.220;5.160;2023-08-07T12:58:10;7.10;;;0.70;;
68229;SDS011;55048;52.220;5.160;2023-08-07T13:00:36;3.05;;;0.70;;
68229;SDS011;55048;52.220;5.160;2023-08-07T13:03:01;4.40;;;0.50;;
68229;SDS011;55048;52.220;5.160;2023-08-07T13:05:27;3.33;;;0.50;;
68229;SDS011;55048;52.220;5.160;2023-08-07T13:07:53;3.75;;;0.60;;
68229;SDS011;55048;52.220;5.160;2023-08-07T13:10:20;6.13;;;0.70;;
68229;SDS011;55048;52.220;5.160;2023-08-07T13:12:47;5.47;;;0.60;;
68229;SDS011;55048;52.220;5.160;2023-08-07T13:15:15;4.80;;;0.57;;
68229;SDS011;55048;52.220;5.160;2023-08-07T13:17:42;6.88;;;0.70;;
68229;SDS011;55048;52.220;5.160;2023-08-07T13:20:09;6.32;;;0.60;;
68229;SDS011;55048;52.220;5.160;2023-08-07T13:22:38;5.35;;;0.68;;
68229;SDS011;55048;52.220;5.160;2023-08-07T13:25:05;3.58;;;0.60;;
68229;SDS011;55048;52.220;5.160;2023-08-07T13:27:32;5.32;;;0.63;;
68229;SDS011;55048;52.220;5.160;2023-08-07T13:29:58;11.60;;;0.65;;
68229;SDS011;55048;52.220;5.160;2023-08-07T13:32:24;3.95;;;0.80;;
68229;SDS011;55048;52.220;5.160;2023-08-07T13:34:50;6.70;;;0.60;;
68229;SDS011;55048;52.220;5.160;2023-08-07T13:37:16;3.03;;;0.60;;
68229;SDS011;55048;52.220;5.160;2023-08-07T13:39:42;2.47;;;0.50;;
68229;SDS011;55048;52.220;5.160;2023-08-07T13:42:07;5.20;;;0.50;;
68229;SDS011;55048;52.220;5.160;2023-08-07T13:44:33;5.45;;;0.60;;
68229;SDS011;55048;52.220;5.160;2023-08-07T13:46:58;4.55;;;0.60;;
68229;SDS011;55048;52.220;5.160;2023-08-07T13:49:24;1.05;;;0.43;;
68229;SDS011;55048;52.220;5.160;2023-08-07T13:51:49;7.03;;;0.52;;
68229;SDS011;55048;52.220;5.160;2023-08-07T13:54:15;3.33;;;0.50;;
68229;SDS011;55048;52.220;5.160;2023-08-07T13:56:41;4.30;;;0.60;;
68229;SDS011;55048;52.220;5.160;2023-08-07T13:59:06;4.40;;;0.60;;
68229;SDS011;55048;52.220;5.160;2023-08-07T14:01:33;2.75;;;0.40;;
68229;SDS011;55048;52.220;5.160;2023-08-07T14:04:00;1.60;;;0.50;;
68229;SDS011;55048;52.220;5.160;2023-08-07T14:06:26;0.70;;;0.38;;
68229;SDS011;55048;52.220;5.160;2023-08-07T14:08:51;7.70;;;0.70;;
68229;SDS011;55048;52.220;5.160;2023-08-07T14:11:17;3.50;;;0.63;;
68229;SDS011;55048;52.220;5.160;2023-08-07T14:13:44;3.55;;;0.57;;
68229;SDS011;55048;52.220;5.160;2023-08-07T14:16:11;2.63;;;0.60;;
68229;SDS011;55048;52.220;5.160;2023-08-07T14:18:37;3.47;;;0.70;;
68229;SDS011;55048;52.220;5.160;2023-08-07T14:21:02;6.45;;;0.70;;
68229;SDS011;55048;52.220;5.160;2023-08-07T14:23:28;4.43;;;0.60;;
68229;SDS011;55048;52.220;5.160;2023-08-07T14:25:53;4.05;;;0.70;;
68229;SDS011;55048;52.220;5.160;2023-08-07T14:28:19;2.05;;;0.60;;
68229;SDS011;55048;52.220;5.160;2023-08-07T14:30:44;5.82;;;0.70;;
68229;SDS011;55048;52.220;5.160;2023-08-07T14:33:10;2.72;;;0.40;;
68229;SDS011;55048;52.220;5.160;2023-08-07T14:35:35;2.80;;;0.60;;
68229;SDS011;55048;52.220;5.160;2023-08-07T14:38:01;3.72;;;0.60;;
68229;SDS011;55048;52.220;5.160;2023-08-07T14:40:26;5.20;;;0.60;;
68229;SDS011;55048;52.220;5.160;2023-08-07T14:42:53;4.07;;;0.63;;
68229;SDS011;55048;52.220;5.160;2023-08-07T14:45:19;2.92;;;0.70;;
68229;SDS011;55048;52.220;5.160;2023-08-07T14:47:45;5.57;;;0.65;;
68229;SDS011;55048;52.220;5.160;2023-08-07T14:50:11;6.13;;;0.90;;
68229;SDS011;55048;52.220;5.160;2023-08-07T14:52:36;6.00;;;0.80;;